sensor_id;sensor_type;location;lat;lon;timestamp;P1;durP1;ratioP1;P2;durP2;ratioP2
8260;SDS011;64115;50.170;8.242;2023-06-14T00:00:45;3.93;;;3.33;;
8260;SDS011;64115;50.170;8.242;2023-06-14T00:03:13;4.20;;;3.80;;
8260;SDS011;64115;50.170;8.242;2023-06-14T00:05:42;3.70;;;3.40;;
8260;SDS011;64115;50.170;8.242;2023-06-14T00:08:13;3.73;;;3.17;;
8260;SDS011;64115;50.170;8.242;2023-06-14T00:10:40;5.10;;;3.60;;
8260;SDS011;64115;50.170;8.242;2023-06-14T00:13:07;3.97;;;3.47;;
8260;SDS011;64115;50.170;8.242;2023-06-14T00:15:34;3.43;;;3.13;;
8260;SDS011;64115;50.170;8.242;2023-06-14T00:18:02;5.57;;;3.10;;
8260;SDS011;64115;50.170;8.242;2023-06-14T00:20:30;6.27;;;3.27;;
8260;SDS011;64115;50.170;8.242;2023-06-14T00:22:58;3.93;;;3.20;;
8260;SDS011;64115;50.170;8.242;2023-06-14T00:25:27;3.37;;;3.07;;
8260;SDS011;64115;50.170;8.242;2023-06-14T00:27:55;4.67;;;3.40;;
8260;SDS011;64115;50.170;8.242;2023-06-14T00:30:23;3.50;;;3.20;;
8260;SDS011;64115;50.170;8.242;2023-06-14T00:32:50;3.40;;;3.20;;
8260;SDS011;64115;50.170;8.242;2023-06-14T00:35:17;3.37;;;3.10;;
8260;SDS011;64115;50.170;8.242;2023-06-14T00:37:44;5.63;;;3.30;;
8260;SDS011;64115;50.170;8.242;2023-06-14T00:40:11;4.80;;;3.23;;
8260;SDS011;64115;50.170;8.242;2023-06-14T00:42:39;3.67;;;3.37;;
8260;SDS011;64115;50.170;8.242;2023-06-14T00:45:06;4.40;;;3.17;;
8260;SDS011;64115;50.170;8.242;2023-06-14T00:47:34;4.03;;;2.87;;
8260;SDS011;64115;50.170;8.242;2023-06-14T00:50:02;4.60;;;3.50;;
8260;SDS011;64115;50.170;8.242;2023-06-14T00:52:32;3.17;;;2.97;;
8260;SDS011;64115;50.170;8.242;2023-06-14T00:54:59;4.57;;;3.10;;
8260;SDS011;64115;50.170;8.242;2023-06-14T00:57:26;3.20;;;3.00;;
8260;SDS011;64115;50.170;8.242;2023-06-14T00:59:56;3.93;;;3.20;;
8260;SDS011;64115;50.170;8.242;2023-06-14T01:02:22;3.17;;;2.87;;
8260;SDS011;64115;50.170;8.242;2023-06-14T01:04:50;3.03;;;2.83;;
8260;SDS011;64115;50.170;8.242;2023-06-14T01:07:21;4.60;;;3.17;;
8260;SDS011;64115;50.170;8.242;2023-06-14T01:09:58;3.60;;;3.33;;
8260;SDS011;64115;50.170;8.242;2023-06-14T01:12:36;8.80;;;3.13;;
8260;SDS011;64115;50.170;8.242;2023-06-14T01:15:16;4.17;;;3.20;;
8260;SDS011;64115;50.170;8.242;2023-06-14T01:17:44;4.10;;;3.70;;
8260;SDS011;64115;50.170;8.242;2023-06-14T01:20:12;3.33;;;3.13;;
8260;SDS011;64115;50.170;8.242;2023-06-14T01:22:47;4.27;;;3.60;;
8260;SDS011;64115;50.170;8.242;2023-06-14T01:25:18;3.20;;;3.00;;
8260;SDS011;64115;50.170;8.242;2023-06-14T01:27:46;4.53;;;3.53;;
8260;SDS011;64115;50.170;8.242;2023-06-14T01:30:14;3.37;;;3.17;;
8260;SDS011;64115;50.170;8.242;2023-06-14T01:32:42;3.97;;;3.00;;
8260;SDS011;64115;50.170;8.242;2023-06-14T01:35:09;3.40;;;3.20;;
8260;SDS011;64115;50.170;8.242;2023-06-14T01:37:36;3.53;;;3.23;;
8260;SDS011;64115;50.170;8.242;2023-06-14T01:40:06;3.50;;;3.20;;
8260;SDS011;64115;50.170;8.242;2023-06-14T01:42:35;4.33;;;3.17;;
8260;SDS011;64115;50.170;8.242;2023-06-14T01:45:05;3.27;;;2.90;;
8260;SDS011;64115;50.170;8.242;2023-06-14T01:47:33;3.47;;;3.17;;
8260;SDS011;64115;50.170;8.242;2023-06-14T01:50:01;3.57;;;3.07;;
8260;SDS011;64115;50.170;8.242;2023-06-14T01:52:29;3.50;;;3.20;;
8260;SDS011;64115;50.170;8.242;2023-06-14T01:54:56;3.37;;;3.10;;
8260;SDS011;64115;50.170;8.242;2023-06-14T01:57:25;3.73;;;3.23;;
8260;SDS011;64115;50.170;8.242;2023-06-14T01:59:52;3.67;;;3.37;;
8260;SDS011;64115;50.170;8.242;2023-06-14T02:02:19;3.70;;;3.40;;
8260;SDS011;64115;50.170;8.242;2023-06-14T02:04:46;3.10;;;2.90;;
8260;SDS011;64115;50.170;8.242;2023-06-14T02:07:13;3.40;;;3.10;;
8260;SDS011;64115;50.170;8.242;2023-06-14T02:09:40;3.50;;;3.20;;
8260;SDS011;64115;50.170;8.242;2023-06-14T02:12:07;5.77;;;3.07;;
8260;SDS011;64115;50.170;8.242;2023-06-14T02:14:37;3.70;;;3.30;;
8260;SDS011;64115;50.170;8.242;2023-06-14T02:17:04;4.27;;;3.47;;
8260;SDS011;64115;50.170;8.242;2023-06-14T02:19:31;3.63;;;3.43;;
8260;SDS011;64115;50.170;8.242;2023-06-14T02:21:58;3.60;;;3.30;;
8260;SDS011;64115;50.170;8.242;2023-06-14T02:24:25;4.00;;;3.70;;
8260;SDS011;64115;50.170;8.242;2023-06-14T02:26:52;3.40;;;3.10;;
8260;SDS011;64115;50.170;8.242;2023-06-14T02:29:19;4.43;;;3.57;;
8260;SDS011;64115;50.170;8.242;2023-06-14T02:31:47;3.80;;;3.50;;
8260;SDS011;64115;50.170;8.242;2023-06-14T02:34:14;3.57;;;3.37;;
8260;SDS011;64115;50.170;8.242;2023-06-14T02:36:43;3.37;;;3.07;;
8260;SDS011;64115;50.170;8.242;2023-06-14T02:39:09;3.40;;;3.20;;
8260;SDS011;64115;50.170;8.242;2023-06-14T02:41:37;3.67;;;3.30;;
8260;SDS011;64115;50.170;8.242;2023-06-14T02:44:04;3.37;;;3.07;;
8260;SDS011;64115;50.170;8.242;2023-06-14T02:46:31;3.67;;;3.47;;
8260;SDS011;64115;50.170;8.242;2023-06-14T02:49:00;3.63;;;3.40;;
8260;SDS011;64115;50.170;8.242;2023-06-14T02:51:27;3.43;;;3.13;;
8260;SDS011;64115;50.170;8.242;2023-06-14T02:53:54;4.00;;;3.30;;
8260;SDS011;64115;50.170;8.242;2023-06-14T02:56:20;3.80;;;3.40;;
8260;SDS011;64115;50.170;8.242;2023-06-14T02:58:47;4.00;;;3.60;;
8260;SDS011;64115;50.170;8.242;2023-06-14T03:01:15;4.23;;;3.30;;
8260;SDS011;64115;50.170;8.242;2023-06-14T03:03:43;3.67;;;3.23;;
8260;SDS011;64115;50.170;8.242;2023-06-14T03:06:11;4.20;;;3.17;;
8260;SDS011;64115;50.170;8.242;2023-06-14T03:08:39;3.43;;;3.13;;
8260;SDS011;64115;50.170;8.242;2023-06-14T03:11:06;3.90;;;3.60;;
8260;SDS011;64115;50.170;8.242;2023-06-14T03:13:34;3.97;;;3.67;;
8260;SDS011;64115;50.170;8.242;2023-06-14T03:16:01;4.23;;;3.33;;
8260;SDS011;64115;50.170;8.242;2023-06-14T03:18:29;4.03;;;3.73;;
8260;SDS011;64115;50.170;8.242;2023-06-14T03:21:00;3.80;;;3.47;;
8260;SDS011;64115;50.170;8.242;2023-06-14T03:23:29;3.80;;;3.60;;
8260;SDS011;64115;50.170;8.242;2023-06-14T03:25:56;4.17;;;3.50;;
8260;SDS011;64115;50.170;8.242;2023-06-14T03:28:23;4.40;;;3.40;;
8260;SDS011;64115;50.170;8.242;2023-06-14T03:30:50;4.23;;;3.83;;
8260;SDS011;64115;50.170;8.242;2023-06-14T03:33:17;3.70;;;3.40;;
8260;SDS011;64115;50.170;8.242;2023-06-14T03:35:44;4.10;;;3.73;;
8260;SDS011;64115;50.170;8.242;2023-06-14T03:38:11;3.53;;;3.30;;
8260;SDS011;64115;50.170;8.242;2023-06-14T03:40:39;5.20;;;3.77;;
8260;SDS011;64115;50.170;8.242;2023-06-14T03:43:06;12.17;;;3.90;;
8260;SDS011;64115;50.170;8.242;2023-06-14T03:45:33;5.27;;;3.60;;
8260;SDS011;64115;50.170;8.242;2023-06-14T03:48:00;8.37;;;3.87;;
8260;SDS011;64115;50.170;8.242;2023-06-14T03:50:27;7.40;;;4.07;;
8260;SDS011;64115;50.170;8.242;2023-06-14T03:52:54;5.67;;;3.80;;
8260;SDS011;64115;50.170;8.242;2023-06-14T03:55:21;4.33;;;3.93;;
8260;SDS011;64115;50.170;8.242;2023-06-14T03:57:51;3.97;;;3.20;;
8260;SDS011;64115;50.170;8.242;2023-06-14T04:00:18;7.60;;;3.67;;
8260;SDS011;64115;50.170;8.242;2023-06-14T04:02:45;4.53;;;3.50;;
8260;SDS011;64115;50.170;8.242;2023-06-14T04:05:12;3.60;;;3.40;;
8260;SDS011;64115;50.170;8.242;2023-06-14T04:07:41;3.90;;;3.40;;
8260;SDS011;64115;50.170;8.242;2023-06-14T04:10:10;4.73;;;3.70;;
8260;SDS011;64115;50.170;8.242;2023-06-14T04:12:37;4.40;;;3.70;;
8260;SDS011;64115;50.170;8.242;2023-06-14T04:15:06;3.87;;;3.00;;
8260;SDS011;64115;50.170;8.242;2023-06-14T04:17:34;4.60;;;3.40;;
8260;SDS011;64115;50.170;8.242;2023-06-14T04:20:03;6.40;;;3.40;;
8260;SDS011;64115;50.170;8.242;2023-06-14T04:22:32;3.87;;;3.57;;
8260;SDS011;64115;50.170;8.242;2023-06-14T04:24:59;3.40;;;3.10;;
8260;SDS011;64115;50.170;8.242;2023-06-14T04:27:26;4.93;;;3.30;;
8260;SDS011;64115;50.170;8.242;2023-06-14T04:29:56;3.47;;;3.27;;
8260;SDS011;64115;50.170;8.242;2023-06-14T04:32:26;3.60;;;3.30;;
8260;SDS011;64115;50.170;8.242;2023-06-14T04:34:54;3.33;;;3.13;;
8260;SDS011;64115;50.170;8.242;2023-06-14T04:37:22;4.93;;;3.50;;
8260;SDS011;64115;50.170;8.242;2023-06-14T04:39:49;4.33;;;3.30;;
8260;SDS011;64115;50.170;8.242;2023-06-14T04:42:16;3.83;;;3.53;;
8260;SDS011;64115;50.170;8.242;2023-06-14T04:44:45;7.23;;;3.10;;
8260;SDS011;64115;50.170;8.242;2023-06-14T04:47:13;3.77;;;3.40;;
8260;SDS011;64115;50.170;8.242;2023-06-14T04:49:42;3.90;;;3.47;;
8260;SDS011;64115;50.170;8.242;2023-06-14T04:52:09;3.30;;;3.10;;
8260;SDS011;64115;50.170;8.242;2023-06-14T04:54:38;3.77;;;3.47;;
8260;SDS011;64115;50.170;8.242;2023-06-14T04:57:07;6.10;;;3.40;;
8260;SDS011;64115;50.170;8.242;2023-06-14T04:59:39;3.87;;;3.10;;
8260;SDS011;64115;50.170;8.242;2023-06-14T05:02:06;3.57;;;3.27;;
8260;SDS011;64115;50.170;8.242;2023-06-14T05:04:33;3.50;;;3.20;;
8260;SDS011;64115;50.170;8.242;2023-06-14T05:07:06;3.80;;;3.50;;
8260;SDS011;64115;50.170;8.242;2023-06-14T05:09:33;3.80;;;3.50;;
8260;SDS011;64115;50.170;8.242;2023-06-14T05:12:00;8.20;;;3.60;;
8260;SDS011;64115;50.170;8.242;2023-06-14T05:14:27;3.17;;;2.97;;
8260;SDS011;64115;50.170;8.242;2023-06-14T05:16:53;5.33;;;3.30;;
8260;SDS011;64115;50.170;8.242;2023-06-14T05:19:20;3.73;;;3.43;;
8260;SDS011;64115;50.170;8.242;2023-06-14T05:21:47;4.03;;;3.73;;
8260;SDS011;64115;50.170;8.242;2023-06-14T05:24:15;3.30;;;3.10;;
8260;SDS011;64115;50.170;8.242;2023-06-14T05:26:43;4.13;;;3.47;;
8260;SDS011;64115;50.170;8.242;2023-06-14T05:29:10;8.20;;;3.30;;
8260;SDS011;64115;50.170;8.242;2023-06-14T05:31:37;4.57;;;3.23;;
8260;SDS011;64115;50.170;8.242;2023-06-14T05:34:03;5.10;;;3.13;;
8260;SDS011;64115;50.170;8.242;2023-06-14T05:36:30;4.73;;;3.23;;
8260;SDS011;64115;50.170;8.242;2023-06-14T05:38:57;5.50;;;3.27;;
8260;SDS011;64115;50.170;8.242;2023-06-14T05:41:26;4.50;;;3.23;;
8260;SDS011;64115;50.170;8.242;2023-06-14T05:43:53;3.80;;;3.00;;
8260;SDS011;64115;50.170;8.242;2023-06-14T05:46:21;5.93;;;3.50;;
8260;SDS011;64115;50.170;8.242;2023-06-14T05:48:50;3.40;;;3.10;;
8260;SDS011;64115;50.170;8.242;2023-06-14T05:51:17;6.30;;;3.40;;
8260;SDS011;64115;50.170;8.242;2023-06-14T05:53:44;3.50;;;3.27;;
8260;SDS011;64115;50.170;8.242;2023-06-14T05:56:12;4.00;;;3.10;;
8260;SDS011;64115;50.170;8.242;2023-06-14T05:58:40;3.30;;;3.00;;
8260;SDS011;64115;50.170;8.242;2023-06-14T06:01:07;3.30;;;3.10;;
8260;SDS011;64115;50.170;8.242;2023-06-14T06:03:34;4.00;;;3.10;;
8260;SDS011;64115;50.170;8.242;2023-06-14T06:06:01;3.50;;;3.20;;
8260;SDS011;64115;50.170;8.242;2023-06-14T06:08:28;3.60;;;3.30;;
8260;SDS011;64115;50.170;8.242;2023-06-14T06:10:55;4.50;;;2.83;;
8260;SDS011;64115;50.170;8.242;2023-06-14T06:13:22;3.13;;;2.93;;
8260;SDS011;64115;50.170;8.242;2023-06-14T06:15:50;3.03;;;2.83;;
8260;SDS011;64115;50.170;8.242;2023-06-14T06:18:17;3.50;;;3.20;;
8260;SDS011;64115;50.170;8.242;2023-06-14T06:20:44;3.13;;;2.93;;
8260;SDS011;64115;50.170;8.242;2023-06-14T06:23:12;3.33;;;3.00;;
8260;SDS011;64115;50.170;8.242;2023-06-14T09:23:08;1.50;;;1.40;;
8260;SDS011;64115;50.170;8.242;2023-06-14T09:25:42;2.53;;;1.60;;
8260;SDS011;64115;50.170;8.242;2023-06-14T09:28:09;1.33;;;1.33;;
8260;SDS011;64115;50.170;8.242;2023-06-14T09:30:36;1.60;;;1.50;;
8260;SDS011;64115;50.170;8.242;2023-06-14T09:33:03;1.73;;;1.63;;
8260;SDS011;64115;50.170;8.242;2023-06-14T09:35:31;1.50;;;1.50;;
8260;SDS011;64115;50.170;8.242;2023-06-14T09:37:57;1.60;;;1.40;;
8260;SDS011;64115;50.170;8.242;2023-06-14T09:40:26;2.73;;;1.50;;
8260;SDS011;64115;50.170;8.242;2023-06-14T09:42:53;1.50;;;1.40;;
8260;SDS011;64115;50.170;8.242;2023-06-14T09:45:22;1.77;;;1.67;;
8260;SDS011;64115;50.170;8.242;2023-06-14T09:47:54;2.00;;;1.60;;
8260;SDS011;64115;50.170;8.242;2023-06-14T09:50:21;1.70;;;1.60;;
8260;SDS011;64115;50.170;8.242;2023-06-14T09:52:48;1.77;;;1.67;;
8260;SDS011;64115;50.170;8.242;2023-06-14T09:55:18;2.10;;;1.80;;
8260;SDS011;64115;50.170;8.242;2023-06-14T09:57:46;2.60;;;2.07;;
8260;SDS011;64115;50.170;8.242;2023-06-14T10:00:15;1.77;;;1.67;;
8260;SDS011;64115;50.170;8.242;2023-06-14T10:02:45;3.40;;;1.70;;
8260;SDS011;64115;50.170;8.242;2023-06-14T10:05:20;1.80;;;1.30;;
8260;SDS011;64115;50.170;8.242;2023-06-14T10:07:52;2.77;;;1.87;;
8260;SDS011;64115;50.170;8.242;2023-06-14T10:10:22;2.23;;;1.90;;
8260;SDS011;64115;50.170;8.242;2023-06-14T10:12:51;2.90;;;1.87;;
8260;SDS011;64115;50.170;8.242;2023-06-14T10:15:20;1.60;;;1.50;;
8260;SDS011;64115;50.170;8.242;2023-06-14T10:17:56;2.73;;;1.70;;
8260;SDS011;64115;50.170;8.242;2023-06-14T10:20:28;2.00;;;1.90;;
8260;SDS011;64115;50.170;8.242;2023-06-14T10:23:00;1.70;;;1.60;;
8260;SDS011;64115;50.170;8.242;2023-06-14T10:25:31;2.00;;;1.80;;
8260;SDS011;64115;50.170;8.242;2023-06-14T10:28:03;1.60;;;1.50;;
8260;SDS011;64115;50.170;8.242;2023-06-14T10:31:06;2.23;;;1.80;;
8260;SDS011;64115;50.170;8.242;2023-06-14T10:33:34;2.40;;;1.77;;
8260;SDS011;64115;50.170;8.242;2023-06-14T10:36:08;2.47;;;1.60;;
8260;SDS011;64115;50.170;8.242;2023-06-14T10:38:58;2.37;;;1.70;;
8260;SDS011;64115;50.170;8.242;2023-06-14T10:41:27;1.63;;;1.53;;
8260;SDS011;64115;50.170;8.242;2023-06-14T10:44:12;2.10;;;2.00;;
8260;SDS011;64115;50.170;8.242;2023-06-14T10:47:06;2.10;;;2.00;;
8260;SDS011;64115;50.170;8.242;2023-06-14T10:49:38;1.97;;;1.77;;
8260;SDS011;64115;50.170;8.242;2023-06-14T10:52:07;2.80;;;1.50;;
8260;SDS011;64115;50.170;8.242;2023-06-14T10:54:54;1.73;;;1.63;;
8260;SDS011;64115;50.170;8.242;2023-06-14T10:57:34;2.77;;;1.63;;
8260;SDS011;64115;50.170;8.242;2023-06-14T11:00:03;1.80;;;1.70;;
8260;SDS011;64115;50.170;8.242;2023-06-14T11:05:53;1.90;;;1.67;;
8260;SDS011;64115;50.170;8.242;2023-06-14T11:08:31;2.87;;;1.67;;
8260;SDS011;64115;50.170;8.242;2023-06-14T11:11:21;2.80;;;1.70;;
8260;SDS011;64115;50.170;8.242;2023-06-14T11:13:52;1.90;;;1.70;;
8260;SDS011;64115;50.170;8.242;2023-06-14T11:16:21;1.70;;;1.60;;
8260;SDS011;64115;50.170;8.242;2023-06-14T11:18:53;2.13;;;1.53;;
8260;SDS011;64115;50.170;8.242;2023-06-14T11:21:20;3.97;;;1.70;;
8260;SDS011;64115;50.170;8.242;2023-06-14T11:23:50;2.00;;;1.90;;
8260;SDS011;64115;50.170;8.242;2023-06-14T11:26:24;2.00;;;1.80;;
8260;SDS011;64115;50.170;8.242;2023-06-14T11:28:54;2.10;;;1.70;;
8260;SDS011;64115;50.170;8.242;2023-06-14T11:31:26;1.93;;;1.83;;
8260;SDS011;64115;50.170;8.242;2023-06-14T11:33:53;2.03;;;1.90;;
8260;SDS011;64115;50.170;8.242;2023-06-14T11:36:21;1.73;;;1.63;;
8260;SDS011;64115;50.170;8.242;2023-06-14T11:38:48;2.13;;;1.93;;
8260;SDS011;64115;50.170;8.242;2023-06-14T11:41:24;2.37;;;1.50;;
8260;SDS011;64115;50.170;8.242;2023-06-14T11:43:54;2.40;;;1.60;;
8260;SDS011;64115;50.170;8.242;2023-06-14T11:46:20;2.03;;;1.70;;
8260;SDS011;64115;50.170;8.242;2023-06-14T11:48:51;2.10;;;2.00;;
8260;SDS011;64115;50.170;8.242;2023-06-14T11:51:18;2.60;;;1.77;;
8260;SDS011;64115;50.170;8.242;2023-06-14T11:53:46;2.00;;;1.80;;
8260;SDS011;64115;50.170;8.242;2023-06-14T11:56:13;1.80;;;1.70;;
8260;SDS011;64115;50.170;8.242;2023-06-14T11:58:42;2.00;;;1.77;;
8260;SDS011;64115;50.170;8.242;2023-06-14T12:01:09;1.73;;;1.67;;
8260;SDS011;64115;50.170;8.242;2023-06-14T12:03:35;2.20;;;1.70;;
8260;SDS011;64115;50.170;8.242;2023-06-14T12:06:05;1.63;;;1.53;;
8260;SDS011;64115;50.170;8.242;2023-06-14T12:08:36;1.80;;;1.70;;
8260;SDS011;64115;50.170;8.242;2023-06-14T12:11:05;2.20;;;2.00;;
8260;SDS011;64115;50.170;8.242;2023-06-14T12:13:33;2.83;;;1.80;;
8260;SDS011;64115;50.170;8.242;2023-06-14T12:16:01;2.10;;;1.60;;
8260;SDS011;64115;50.170;8.242;2023-06-14T12:18:33;2.50;;;1.83;;
8260;SDS011;64115;50.170;8.242;2023-06-14T12:21:00;2.00;;;1.80;;
8260;SDS011;64115;50.170;8.242;2023-06-14T12:26:17;1.90;;;1.80;;
8260;SDS011;64115;50.170;8.242;2023-06-14T12:28:45;3.73;;;2.00;;
8260;SDS011;64115;50.170;8.242;2023-06-14T12:31:13;1.90;;;1.80;;
8260;SDS011;64115;50.170;8.242;2023-06-14T12:33:41;1.90;;;1.80;;
8260;SDS011;64115;50.170;8.242;2023-06-14T12:36:08;1.80;;;1.70;;
8260;SDS011;64115;50.170;8.242;2023-06-14T12:38:39;2.57;;;1.83;;
8260;SDS011;64115;50.170;8.242;2023-06-14T12:41:07;1.90;;;1.80;;
8260;SDS011;64115;50.170;8.242;2023-06-14T12:43:33;2.50;;;2.30;;
8260;SDS011;64115;50.170;8.242;2023-06-14T12:46:00;1.83;;;1.73;;
8260;SDS011;64115;50.170;8.242;2023-06-14T12:48:27;1.87;;;1.73;;
8260;SDS011;64115;50.170;8.242;2023-06-14T12:50:56;2.53;;;1.90;;
8260;SDS011;64115;50.170;8.242;2023-06-14T12:53:23;2.47;;;1.80;;
8260;SDS011;64115;50.170;8.242;2023-06-14T12:55:50;1.90;;;1.70;;
8260;SDS011;64115;50.170;8.242;2023-06-14T12:58:18;1.60;;;1.50;;
8260;SDS011;64115;50.170;8.242;2023-06-14T13:00:45;1.90;;;1.80;;
8260;SDS011;64115;50.170;8.242;2023-06-14T13:03:12;1.87;;;1.70;;
8260;SDS011;64115;50.170;8.242;2023-06-14T13:05:39;2.40;;;1.53;;
8260;SDS011;64115;50.170;8.242;2023-06-14T13:08:06;3.00;;;1.70;;
8260;SDS011;64115;50.170;8.242;2023-06-14T13:10:34;1.90;;;1.80;;
8260;SDS011;64115;50.170;8.242;2023-06-14T13:13:01;1.90;;;1.80;;
8260;SDS011;64115;50.170;8.242;2023-06-14T13:15:29;1.70;;;1.60;;
8260;SDS011;64115;50.170;8.242;2023-06-14T13:17:56;1.83;;;1.73;;
8260;SDS011;64115;50.170;8.242;2023-06-14T13:20:23;1.80;;;1.70;;
8260;SDS011;64115;50.170;8.242;2023-06-14T13:22:50;1.70;;;1.60;;
8260;SDS011;64115;50.170;8.242;2023-06-14T13:25:16;1.97;;;1.87;;
8260;SDS011;64115;50.170;8.242;2023-06-14T13:27:43;2.00;;;1.90;;
8260;SDS011;64115;50.170;8.242;2023-06-14T13:30:11;1.67;;;1.57;;
8260;SDS011;64115;50.170;8.242;2023-06-14T13:32:39;2.30;;;1.77;;
8260;SDS011;64115;50.170;8.242;2023-06-14T13:35:06;2.10;;;1.80;;
8260;SDS011;64115;50.170;8.242;2023-06-14T13:37:33;1.67;;;1.53;;
8260;SDS011;64115;50.170;8.242;2023-06-14T13:40:00;2.27;;;1.80;;
8260;SDS011;64115;50.170;8.242;2023-06-14T13:42:27;1.70;;;1.60;;
8260;SDS011;64115;50.170;8.242;2023-06-14T13:44:56;1.87;;;1.70;;
8260;SDS011;64115;50.170;8.242;2023-06-14T13:47:23;2.20;;;2.10;;
8260;SDS011;64115;50.170;8.242;2023-06-14T13:49:51;1.90;;;1.80;;
8260;SDS011;64115;50.170;8.242;2023-06-14T13:52:18;1.90;;;1.80;;
8260;SDS011;64115;50.170;8.242;2023-06-14T13:54:44;2.53;;;1.90;;
8260;SDS011;64115;50.170;8.242;2023-06-14T13:57:11;2.50;;;1.80;;
8260;SDS011;64115;50.170;8.242;2023-06-14T13:59:38;2.10;;;2.00;;
8260;SDS011;64115;50.170;8.242;2023-06-14T14:02:05;5.17;;;2.10;;
8260;SDS011;64115;50.170;8.242;2023-06-14T14:04:38;2.00;;;1.80;;
8260;SDS011;64115;50.170;8.242;2023-06-14T14:07:17;2.20;;;1.80;;
8260;SDS011;64115;50.170;8.242;2023-06-14T14:09:45;3.33;;;2.00;;
8260;SDS011;64115;50.170;8.242;2023-06-14T14:12:12;2.03;;;1.73;;
8260;SDS011;64115;50.170;8.242;2023-06-14T14:14:39;2.20;;;2.00;;
8260;SDS011;64115;50.170;8.242;2023-06-14T14:17:06;2.73;;;2.03;;
8260;SDS011;64115;50.170;8.242;2023-06-14T14:19:33;1.80;;;1.70;;
8260;SDS011;64115;50.170;8.242;2023-06-14T14:22:00;1.90;;;1.80;;
8260;SDS011;64115;50.170;8.242;2023-06-14T14:24:29;1.67;;;1.57;;
8260;SDS011;64115;50.170;8.242;2023-06-14T14:26:56;3.53;;;2.00;;
8260;SDS011;64115;50.170;8.242;2023-06-14T14:29:25;2.13;;;2.00;;
8260;SDS011;64115;50.170;8.242;2023-06-14T14:31:54;2.27;;;1.80;;
8260;SDS011;64115;50.170;8.242;2023-06-14T14:34:21;2.10;;;2.00;;
8260;SDS011;64115;50.170;8.242;2023-06-14T14:36:48;2.20;;;2.00;;
8260;SDS011;64115;50.170;8.242;2023-06-14T14:39:15;1.90;;;1.80;;
8260;SDS011;64115;50.170;8.242;2023-06-14T14:41:43;1.90;;;1.80;;
8260;SDS011;64115;50.170;8.242;2023-06-14T14:44:10;2.07;;;1.90;;
8260;SDS011;64115;50.170;8.242;2023-06-14T14:46:36;2.00;;;1.90;;
8260;SDS011;64115;50.170;8.242;2023-06-14T14:49:03;2.17;;;1.93;;
8260;SDS011;64115;50.170;8.242;2023-06-14T14:51:30;2.90;;;2.00;;
8260;SDS011;64115;50.170;8.242;2023-06-14T14:53:57;2.00;;;1.80;;
8260;SDS011;64115;50.170;8.242;2023-06-14T14:56:24;2.20;;;2.10;;
8260;SDS011;64115;50.170;8.242;2023-06-14T14:58:53;2.00;;;1.90;;
8260;SDS011;64115;50.170;8.242;2023-06-14T15:01:20;2.10;;;1.90;;
8260;SDS011;64115;50.170;8.242;2023-06-14T15:03:50;1.73;;;1.63;;
8260;SDS011;64115;50.170;8.242;2023-06-14T15:06:17;2.80;;;1.97;;
8260;SDS011;64115;50.170;8.242;2023-06-14T15:08:44;1.87;;;1.77;;
8260;SDS011;64115;50.170;8.242;2023-06-14T15:11:10;3.23;;;1.80;;
8260;SDS011;64115;50.170;8.242;2023-06-14T15:13:37;1.80;;;1.70;;
8260;SDS011;64115;50.170;8.242;2023-06-14T15:16:05;1.80;;;1.70;;
8260;SDS011;64115;50.170;8.242;2023-06-14T15:18:32;1.70;;;1.60;;
8260;SDS011;64115;50.170;8.242;2023-06-14T15:20:59;2.30;;;1.90;;
8260;SDS011;64115;50.170;8.242;2023-06-14T15:23:26;2.20;;;2.00;;
8260;SDS011;64115;50.170;8.242;2023-06-14T15:25:54;1.93;;;1.83;;
8260;SDS011;64115;50.170;8.242;2023-06-14T15:28:21;3.03;;;2.30;;
8260;SDS011;64115;50.170;8.242;2023-06-14T15:30:49;2.30;;;1.87;;
8260;SDS011;64115;50.170;8.242;2023-06-14T15:33:17;1.87;;;1.77;;
8260;SDS011;64115;50.170;8.242;2023-06-14T15:35:46;2.20;;;2.00;;
8260;SDS011;64115;50.170;8.242;2023-06-14T15:38:12;2.40;;;1.87;;
8260;SDS011;64115;50.170;8.242;2023-06-14T15:40:39;1.97;;;1.87;;
8260;SDS011;64115;50.170;8.242;2023-06-14T15:43:06;1.90;;;1.70;;
8260;SDS011;64115;50.170;8.242;2023-06-14T15:45:33;2.07;;;1.87;;
8260;SDS011;64115;50.170;8.242;2023-06-14T15:48:02;1.90;;;1.80;;
8260;SDS011;64115;50.170;8.242;2023-06-14T15:50:30;1.90;;;1.80;;
8260;SDS011;64115;50.170;8.242;2023-06-14T15:52:57;2.00;;;1.90;;
8260;SDS011;64115;50.170;8.242;2023-06-14T15:55:24;1.87;;;1.77;;
8260;SDS011;64115;50.170;8.242;2023-06-14T15:57:51;1.90;;;1.80;;
8260;SDS011;64115;50.170;8.242;2023-06-14T16:00:18;2.07;;;1.70;;
8260;SDS011;64115;50.170;8.242;2023-06-14T16:02:45;2.80;;;1.70;;
8260;SDS011;64115;50.170;8.242;2023-06-14T16:05:14;1.90;;;1.80;;
8260;SDS011;64115;50.170;8.242;2023-06-14T16:07:42;2.20;;;2.00;;
8260;SDS011;64115;50.170;8.242;2023-06-14T16:10:09;1.90;;;1.80;;
8260;SDS011;64115;50.170;8.242;2023-06-14T16:12:36;5.93;;;2.03;;
8260;SDS011;64115;50.170;8.242;2023-06-14T16:15:03;2.00;;;1.90;;
8260;SDS011;64115;50.170;8.242;2023-06-14T16:17:31;2.00;;;1.73;;
8260;SDS011;64115;50.170;8.242;2023-06-14T16:19:57;2.07;;;1.90;;
8260;SDS011;64115;50.170;8.242;2023-06-14T16:22:24;2.03;;;1.80;;
8260;SDS011;64115;50.170;8.242;2023-06-14T16:24:52;2.37;;;2.10;;
8260;SDS011;64115;50.170;8.242;2023-06-14T16:27:19;2.73;;;2.03;;
8260;SDS011;64115;50.170;8.242;2023-06-14T16:29:46;1.80;;;1.70;;
8260;SDS011;64115;50.170;8.242;2023-06-14T16:32:13;2.20;;;2.10;;
8260;SDS011;64115;50.170;8.242;2023-06-14T16:34:39;1.87;;;1.77;;
8260;SDS011;64115;50.170;8.242;2023-06-14T16:37:06;8.70;;;2.17;;
8260;SDS011;64115;50.170;8.242;2023-06-14T16:39:33;2.07;;;1.97;;
8260;SDS011;64115;50.170;8.242;2023-06-14T16:42:01;2.27;;;1.70;;
8260;SDS011;64115;50.170;8.242;2023-06-14T16:44:28;2.57;;;1.80;;
8260;SDS011;64115;50.170;8.242;2023-06-14T16:46:55;2.20;;;2.10;;
8260;SDS011;64115;50.170;8.242;2023-06-14T16:49:25;2.10;;;1.90;;
8260;SDS011;64115;50.170;8.242;2023-06-14T16:51:53;2.30;;;2.10;;
8260;SDS011;64115;50.170;8.242;2023-06-14T16:54:20;2.70;;;1.90;;
8260;SDS011;64115;50.170;8.242;2023-06-14T16:56:47;2.20;;;2.10;;
8260;SDS011;64115;50.170;8.242;2023-06-14T16:59:16;2.57;;;2.17;;
8260;SDS011;64115;50.170;8.242;2023-06-14T17:01:43;2.17;;;2.00;;
8260;SDS011;64115;50.170;8.242;2023-06-14T17:04:09;2.67;;;2.00;;
8260;SDS011;64115;50.170;8.242;2023-06-14T17:06:36;2.00;;;1.90;;
8260;SDS011;64115;50.170;8.242;2023-06-14T17:09:03;2.07;;;1.97;;
8260;SDS011;64115;50.170;8.242;2023-06-14T17:11:30;2.00;;;1.90;;
8260;SDS011;64115;50.170;8.242;2023-06-14T17:13:56;1.93;;;1.80;;
8260;SDS011;64115;50.170;8.242;2023-06-14T17:16:25;2.23;;;2.10;;
8260;SDS011;64115;50.170;8.242;2023-06-14T17:18:51;3.83;;;1.90;;
8260;SDS011;64115;50.170;8.242;2023-06-14T17:21:18;1.97;;;1.87;;
8260;SDS011;64115;50.170;8.242;2023-06-14T17:23:45;2.77;;;2.20;;
8260;SDS011;64115;50.170;8.242;2023-06-14T17:26:11;2.10;;;2.00;;
8260;SDS011;64115;50.170;8.242;2023-06-14T17:28:38;2.80;;;1.90;;
8260;SDS011;64115;50.170;8.242;2023-06-14T17:31:05;2.50;;;1.90;;
8260;SDS011;64115;50.170;8.242;2023-06-14T17:33:33;2.07;;;1.97;;
8260;SDS011;64115;50.170;8.242;2023-06-14T17:36:01;3.60;;;2.30;;
8260;SDS011;64115;50.170;8.242;2023-06-14T17:38:28;2.30;;;2.10;;
8260;SDS011;64115;50.170;8.242;2023-06-14T17:40:55;2.43;;;2.00;;
8260;SDS011;64115;50.170;8.242;2023-06-14T17:43:23;2.10;;;2.00;;
8260;SDS011;64115;50.170;8.242;2023-06-14T17:45:50;2.63;;;2.20;;
8260;SDS011;64115;50.170;8.242;2023-06-14T17:48:18;4.17;;;2.20;;
8260;SDS011;64115;50.170;8.242;2023-06-14T17:50:47;2.40;;;2.30;;
8260;SDS011;64115;50.170;8.242;2023-06-14T17:53:13;2.23;;;2.00;;
8260;SDS011;64115;50.170;8.242;2023-06-14T17:55:41;2.23;;;2.10;;
8260;SDS011;64115;50.170;8.242;2023-06-14T17:58:07;2.27;;;2.17;;
8260;SDS011;64115;50.170;8.242;2023-06-14T18:00:34;2.17;;;2.00;;
8260;SDS011;64115;50.170;8.242;2023-06-14T18:03:01;2.77;;;2.20;;
8260;SDS011;64115;50.170;8.242;2023-06-14T18:05:30;2.10;;;2.00;;
8260;SDS011;64115;50.170;8.242;2023-06-14T18:07:58;2.37;;;2.17;;
8260;SDS011;64115;50.170;8.242;2023-06-14T18:10:25;2.30;;;2.10;;